createdAt,value
2019-03-09T00:01:43.815Z,97716.67
2019-03-09T00:06:45.440Z,97719.24
2019-03-09T00:11:46.998Z,97714.08
2019-03-09T00:16:48.947Z,97713.33
2019-03-09T00:21:50.559Z,97717.06
2019-03-09T00:26:56.729Z,97727.20
2019-03-09T00:32:03.275Z,97725.08
2019-03-09T00:37:05.147Z,97725.56
2019-03-09T00:42:06.820Z,97721.26
2019-03-09T00:47:08.527Z,97724.00
2019-03-09T00:52:10.216Z,97723.82
2019-03-09T00:57:11.770Z,97722.69
2019-03-09T01:02:13.316Z,97720.96
2019-03-09T01:07:14.948Z,97706.23
2019-03-09T01:12:16.602Z,97711.51
2019-03-09T01:17:18.299Z,97697.22
2019-03-09T01:22:19.849Z,97695.83
2019-03-09T01:27:21.500Z,97689.91
2019-03-09T01:32:23.148Z,97687.86
2019-03-09T01:37:24.696Z,97686.02
2019-03-09T01:42:26.256Z,97690.86
2019-03-09T01:47:27.915Z,97688.52
2019-03-09T01:52:29.575Z,97685.56
2019-03-09T01:57:31.131Z,97689.46
2019-03-09T02:02:32.681Z,97688.09
2019-03-09T02:07:34.527Z,97687.55
2019-03-09T02:12:36.284Z,97680.23
2019-03-09T02:17:37.877Z,97686.72
2019-03-09T02:22:39.583Z,97685.34
2019-03-09T02:27:41.244Z,97676.03
2019-03-09T02:32:42.993Z,97672.41
2019-03-09T02:37:44.795Z,97665.27
2019-03-09T02:42:46.345Z,97651.83
2019-03-09T02:47:47.933Z,97662.09
2019-03-09T02:52:50.762Z,97650.07
2019-03-09T02:57:52.318Z,97656.04
2019-03-09T03:03:07.007Z,97654.80
2019-03-09T03:08:08.732Z,97652.09
2019-03-09T03:13:10.291Z,97648.19
2019-03-09T03:18:11.907Z,97653.78
2019-03-09T03:23:13.557Z,97656.56
2019-03-09T03:28:15.123Z,97650.29
2019-03-09T03:33:16.823Z,97655.97
2019-03-09T03:38:18.521Z,97639.62
2019-03-09T03:43:20.122Z,97635.49
2019-03-09T03:48:22.676Z,97636.83
2019-03-09T03:53:24.284Z,97639.97
2019-03-09T03:58:25.833Z,97631.13
2019-03-09T04:03:27.387Z,97630.67
2019-03-09T04:08:29.650Z,97629.36
2019-03-09T04:13:31.768Z,97626.70
2019-03-09T04:18:33.320Z,97614.31
2019-03-09T04:23:34.915Z,97606.98
2019-03-09T04:28:36.513Z,97614.02
2019-03-09T04:33:38.305Z,97606.22
2019-03-09T04:38:39.860Z,97597.95
2019-03-09T04:43:41.427Z,97587.54
2019-03-09T04:48:43.088Z,97582.38
2019-03-09T04:53:44.652Z,97579.55
2019-03-09T04:58:46.207Z,97582.38
2019-03-09T05:03:56.293Z,97570.72
2019-03-09T05:09:12.232Z,97571.45
2019-03-09T05:14:13.892Z,97575.36
2019-03-09T05:19:15.472Z,97561.16
2019-03-09T05:24:17.008Z,97556.00
2019-03-09T05:29:18.578Z,97554.54
2019-03-09T05:34:20.358Z,97546.70
2019-03-09T05:39:21.949Z,97532.66
2019-03-09T05:44:23.770Z,97551.09
2019-03-09T05:49:25.424Z,97546.69
2019-03-09T05:54:27.017Z,97549.52
2019-03-09T05:59:28.660Z,97539.70
2019-03-09T06:04:30.224Z,97543.38
2019-03-09T06:09:31.853Z,97534.16
2019-03-09T06:14:33.708Z,97532.46
2019-03-09T06:19:35.297Z,97529.58
2019-03-09T06:24:36.856Z,97527.38
2019-03-09T06:29:38.433Z,97526.16
2019-03-09T06:34:39.976Z,97523.27
2019-03-09T06:39:41.776Z,97526.61
2019-03-09T06:44:43.528Z,97507.88
2019-03-09T06:49:46.294Z,97506.89
2019-03-09T06:54:47.894Z,97514.01
2019-03-09T06:59:49.551Z,97515.85
2019-03-09T07:04:51.186Z,97512.30
2019-03-09T07:09:52.913Z,97495.73
2019-03-09T07:15:03.191Z,97505.84
2019-03-09T07:20:12.625Z,97498.63
2019-03-09T07:25:12.119Z,97491.99
2019-03-09T07:30:15.933Z,97477.23
2019-03-09T07:35:17.684Z,97469.87
2019-03-09T07:40:19.440Z,97451.85
2019-03-09T07:45:21.003Z,97449.05
2019-03-09T07:50:22.695Z,97464.19
2019-03-09T07:55:24.276Z,97447.80
2019-03-09T08:00:26.030Z,97434.42
2019-03-09T08:05:27.812Z,97431.36
2019-03-09T08:10:30.500Z,97423.30
2019-03-09T08:15:32.261Z,97412.34
2019-03-09T08:20:33.856Z,97426.84
2019-03-09T08:25:35.420Z,97400.42
2019-03-09T08:30:37.091Z,97396.56
2019-03-09T08:35:38.646Z,97391.47
2019-03-09T08:40:40.280Z,97388.51
2019-03-09T08:45:41.835Z,97391.73
2019-03-09T08:50:43.605Z,97372.11
2019-03-09T08:55:45.195Z,97370.06
2019-03-09T09:00:46.771Z,97360.11
2019-03-09T09:05:48.428Z,97344.11
2019-03-09T09:10:50.933Z,97345.08
2019-03-09T09:15:52.799Z,97321.32
2019-03-09T09:20:54.361Z,97313.00
2019-03-09T09:25:55.911Z,97314.77
2019-03-09T09:30:57.497Z,97309.63
2019-03-09T09:35:59.444Z,97303.03
2019-03-09T09:41:01.104Z,97305.02
2019-03-09T09:46:02.860Z,97307.78
2019-03-09T09:51:04.627Z,97293.28
2019-03-09T09:56:06.180Z,97291.64
2019-03-09T10:01:07.805Z,97271.11
2019-03-09T10:06:09.403Z,97256.38
2019-03-09T10:11:12.233Z,97248.36
2019-03-09T10:16:13.798Z,97234.87
2019-03-09T10:21:15.629Z,97200.58
2019-03-09T10:26:18.714Z,97213.60
2019-03-09T10:31:20.749Z,97221.37
2019-03-09T10:36:24.217Z,97197.34
2019-03-09T10:41:26.303Z,97179.11
2019-03-09T10:46:31.142Z,97174.66
2019-03-09T10:51:32.688Z,97174.59
2019-03-09T10:56:35.798Z,97152.41
2019-03-09T11:01:38.691Z,97162.84
2019-03-09T11:06:42.179Z,97136.16
2019-03-09T11:11:44.936Z,97149.73
2019-03-09T11:16:48.423Z,97144.20
2019-03-09T11:21:49.974Z,97132.42
2019-03-09T11:26:53.224Z,97124.20
2019-03-09T11:31:54.996Z,97123.95
2019-03-09T11:36:56.884Z,97129.59
2019-03-09T11:42:02.613Z,97107.92
2019-03-09T11:47:04.777Z,97114.27
2019-03-09T11:52:06.434Z,97136.91
2019-03-09T11:57:09.313Z,97149.63
2019-03-09T12:02:12.817Z,97108.88
2019-03-09T12:07:14.720Z,97174.61
2019-03-09T12:12:17.848Z,97167.63
2019-03-09T12:17:21.024Z,97193.48
2019-03-09T12:22:24.319Z,97177.05
2019-03-09T12:27:27.302Z,97183.18
2019-03-09T12:32:28.906Z,97179.47
2019-03-09T12:37:33.160Z,97162.80
2019-03-09T12:42:35.141Z,97151.71
2019-03-09T12:47:38.662Z,97138.13
2019-03-09T12:52:40.533Z,97134.22
2019-03-09T12:57:44.551Z,97113.47
2019-03-09T13:02:46.538Z,97124.38
2019-03-09T13:07:50.395Z,97120.70
2019-03-09T13:12:53.188Z,97134.34
2019-03-09T13:17:54.867Z,97130.88
2019-03-09T13:22:56.740Z,97149.23
2019-03-09T13:28:01.317Z,97157.77
2019-03-09T13:33:04.932Z,97161.61
2019-03-09T13:38:07.689Z,97164.29
2019-03-09T13:43:09.719Z,97181.85
2019-03-09T13:48:14.682Z,97168.67
2019-03-09T13:53:16.301Z,97166.97
2019-03-09T13:58:19.153Z,97161.28
2019-03-09T14:03:20.860Z,97169.67
2019-03-09T14:08:24.057Z,97146.05
2019-03-09T14:13:25.967Z,97145.41
2019-03-09T14:18:31.024Z,97126.01
2019-03-09T14:23:35.869Z,97127.09
2019-03-09T14:28:37.420Z,97109.42
2019-03-09T14:33:40.274Z,97119.23
2019-03-09T14:38:42.620Z,97117.72
2019-03-09T14:43:45.178Z,97109.84
2019-03-09T14:48:47.327Z,97105.09
2019-03-09T14:53:52.480Z,97095.85
2019-03-09T14:58:54.209Z,97094.95
2019-03-09T15:03:57.660Z,97098.91
2019-03-09T15:09:01.125Z,97097.77
2019-03-09T15:14:04.752Z,97077.94
2019-03-09T15:19:07.370Z,97080.06
2019-03-09T15:24:08.934Z,97065.78
2019-03-09T15:29:10.801Z,97058.59
2019-03-09T15:34:12.652Z,97033.47
2019-03-09T15:39:15.763Z,97027.87
2019-03-09T15:44:18.850Z,97018.66
2019-03-09T15:49:20.648Z,97024.38
2019-03-09T15:54:22.363Z,97018.05
2019-03-09T15:59:28.748Z,97004.25
2019-03-09T16:04:33.193Z,97004.66
2019-03-09T16:09:35.821Z,96993.86
2019-03-09T16:14:37.492Z,96985.62
2019-03-09T16:19:41.469Z,96982.53
2019-03-09T16:24:44.131Z,96981.47
2019-03-09T16:29:46.244Z,96970.95
2019-03-09T16:34:49.697Z,96971.05
2019-03-09T16:39:55.033Z,96972.83
2019-03-09T16:44:56.650Z,96964.98
2019-03-09T16:49:58.203Z,96976.83
2019-03-09T16:55:01.543Z,96978.65
2019-03-09T17:00:21.321Z,96972.98
2019-03-09T17:05:23.293Z,96971.53
2019-03-09T17:10:25.064Z,96961.20
2019-03-09T17:15:26.791Z,96952.03
2019-03-09T17:20:28.370Z,96959.80
2019-03-09T17:25:29.923Z,96964.12
2019-03-09T17:30:31.486Z,96945.78
2019-03-09T17:35:33.068Z,96958.23
2019-03-09T17:40:34.621Z,96948.76
2019-03-09T17:45:36.222Z,96959.97
2019-03-09T17:50:37.765Z,96960.11
2019-03-09T17:55:39.332Z,96946.67
2019-03-09T18:00:44.826Z,96937.77
2019-03-09T18:05:46.391Z,96938.82
2019-03-09T18:10:53.031Z,96932.67
2019-03-09T18:15:54.913Z,96924.28
2019-03-09T18:20:56.504Z,96902.02
2019-03-09T18:25:58.064Z,96896.16
2019-03-09T18:30:59.641Z,96895.00
2019-03-09T18:36:02.907Z,96886.63
2019-03-09T18:41:06.487Z,96865.68
2019-03-09T18:46:08.337Z,96863.09
2019-03-09T18:51:13.721Z,96879.19
2019-03-09T18:56:16.372Z,96881.36
2019-03-09T19:01:18.201Z,96889.59
2019-03-09T19:06:21.266Z,96873.59
2019-03-09T19:11:23.077Z,96864.48
2019-03-09T19:16:27.414Z,96861.13
2019-03-09T19:21:31.523Z,96848.55
2019-03-09T19:26:34.131Z,96827.65
2019-03-09T19:31:36.932Z,96831.01
2019-03-09T19:36:39.835Z,96824.87
2019-03-09T19:41:44.743Z,96830.45
2019-03-09T19:46:46.319Z,96830.95
2019-03-09T19:51:49.100Z,96834.25
2019-03-09T19:56:53.866Z,96828.21
2019-03-09T20:01:56.724Z,96819.78
2019-03-09T20:06:59.662Z,96828.89
2019-03-09T20:12:02.524Z,96835.58
2019-03-09T20:17:04.493Z,96827.64
2019-03-09T20:22:07.823Z,96820.35
2019-03-09T20:27:10.837Z,96800.59
2019-03-09T20:32:14.780Z,96802.81
2019-03-09T20:37:17.949Z,96801.48
2019-03-09T20:42:21.594Z,96786.73
2019-03-09T20:47:24.597Z,96784.37
2019-03-09T20:52:28.430Z,96780.76
2019-03-09T20:57:30.311Z,96771.69
2019-03-09T21:02:32.260Z,96758.08
2019-03-09T21:07:36.127Z,96750.62
2019-03-09T21:13:01.989Z,96741.65
2019-03-09T21:18:04.941Z,96736.00
2019-03-09T21:23:06.711Z,96710.84
2019-03-09T21:28:08.442Z,96698.29
2019-03-09T21:33:10.023Z,96706.37
2019-03-09T21:38:11.573Z,96714.67
2019-03-09T21:43:13.227Z,96721.47
2019-03-09T21:48:14.779Z,96729.73
2019-03-09T21:53:16.335Z,96728.26
2019-03-09T21:58:17.937Z,96700.09
2019-03-09T22:03:19.597Z,96674.06
2019-03-09T22:08:21.280Z,96649.05
2019-03-09T22:13:23.100Z,96645.20
2019-03-09T22:18:24.853Z,96612.91
2019-03-09T22:23:26.747Z,96609.37
2019-03-09T22:28:28.303Z,96619.77
2019-03-09T22:33:29.856Z,96619.28
2019-03-09T22:38:31.436Z,96595.02
2019-03-09T22:43:33.033Z,96570.03
2019-03-09T22:48:34.652Z,96571.53
2019-03-09T22:53:36.396Z,96565.27
2019-03-09T22:58:38.496Z,96560.81
2019-03-09T23:03:40.245Z,96552.12
2019-03-09T23:08:41.812Z,96540.97
2019-03-09T23:13:43.494Z,96542.79
2019-03-09T23:18:45.163Z,96526.11
2019-03-09T23:23:46.762Z,96503.73
2019-03-09T23:28:48.563Z,96506.77
2019-03-09T23:33:51.225Z,96497.68
2019-03-09T23:38:52.779Z,96515.88
2019-03-09T23:43:54.339Z,96509.69
2019-03-09T23:48:57.036Z,96518.98
2019-03-09T23:53:58.663Z,96520.54
2019-03-09T23:59:00.224Z,96559.11
